Terminal Aerodrome Forecast
Issued by NWS

Home | Current Version | Previous Version | Text Only | Print | Product List | Glossary On
Versions: 1 2 3 4 5 6 7 8 9 10 11 12 13 14 15 16 17 18 19 20 21 22 23 24 25 26
000
FTPA31 PHFO 290500
TAFOGG
TAF
PHOG 290520Z 2906/3006 04006KT P6SM FEW030 SCT050
     FM291200 09004KT P6SM FEW050
     FM292000 02008KT P6SM FEW030 SCT050
     FM300400 12004KT P6SM FEW050
      AMD LTD TO WX VIS AND WIND 2909/2916=

USA.gov is the U.S. government's official web portal to all federal, state and local government web resources and services.